sensor_id;sensor_type;location;lat;lon;timestamp;temperature;humidity
15554;DHT22;7878;44.632;10.942;2022-07-04T00:00:36;32.00;64.80
15554;DHT22;7878;44.632;10.942;2022-07-04T00:03:01;32.00;65.30
15554;DHT22;7878;44.632;10.942;2022-07-04T00:05:27;31.90;65.10
15554;DHT22;7878;44.632;10.942;2022-07-04T00:07:53;31.90;65.30
15554;DHT22;7878;44.632;10.942;2022-07-04T00:10:19;31.80;65.20
15554;DHT22;7878;44.632;10.942;2022-07-04T00:12:46;31.80;65.10
15554;DHT22;7878;44.632;10.942;2022-07-04T00:15:13;31.80;65.30
15554;DHT22;7878;44.632;10.942;2022-07-04T00:17:39;31.80;65.80
15554;DHT22;7878;44.632;10.942;2022-07-04T00:20:06;31.80;65.40
15554;DHT22;7878;44.632;10.942;2022-07-04T00:22:32;31.80;65.60
15554;DHT22;7878;44.632;10.942;2022-07-04T00:24:58;31.80;65.50
15554;DHT22;7878;44.632;10.942;2022-07-04T00:27:24;31.80;65.40
15554;DHT22;7878;44.632;10.942;2022-07-04T00:29:50;31.80;65.40
15554;DHT22;7878;44.632;10.942;2022-07-04T00:32:16;31.80;65.80
15554;DHT22;7878;44.632;10.942;2022-07-04T00:34:42;31.70;65.60
15554;DHT22;7878;44.632;10.942;2022-07-04T00:37:07;31.70;65.60
15554;DHT22;7878;44.632;10.942;2022-07-04T00:39:33;31.70;65.60
15554;DHT22;7878;44.632;10.942;2022-07-04T00:41:59;31.70;65.90
15554;DHT22;7878;44.632;10.942;2022-07-04T00:44:25;31.70;65.70
15554;DHT22;7878;44.632;10.942;2022-07-04T00:46:50;31.70;65.50
15554;DHT22;7878;44.632;10.942;2022-07-04T00:49:17;31.70;65.50
15554;DHT22;7878;44.632;10.942;2022-07-04T00:51:44;31.70;65.50
15554;DHT22;7878;44.632;10.942;2022-07-04T00:54:12;31.60;65.70
15554;DHT22;7878;44.632;10.942;2022-07-04T00:56:40;31.60;65.40
15554;DHT22;7878;44.632;10.942;2022-07-04T00:59:06;31.50;65.60
15554;DHT22;7878;44.632;10.942;2022-07-04T01:01:33;31.40;65.50
15554;DHT22;7878;44.632;10.942;2022-07-04T01:04:00;31.40;65.50
15554;DHT22;7878;44.632;10.942;2022-07-04T01:06:26;31.40;65.50
15554;DHT22;7878;44.632;10.942;2022-07-04T01:08:52;31.40;65.50
15554;DHT22;7878;44.632;10.942;2022-07-04T01:11:18;31.30;65.40
15554;DHT22;7878;44.632;10.942;2022-07-04T01:13:43;31.30;65.40
15554;DHT22;7878;44.632;10.942;2022-07-04T01:16:10;31.30;65.40
15554;DHT22;7878;44.632;10.942;2022-07-04T01:18:36;31.30;65.40
15554;DHT22;7878;44.632;10.942;2022-07-04T01:21:03;31.30;65.50
15554;DHT22;7878;44.632;10.942;2022-07-04T01:23:28;31.30;65.40
15554;DHT22;7878;44.632;10.942;2022-07-04T01:25:56;31.20;65.40
15554;DHT22;7878;44.632;10.942;2022-07-04T01:28:22;31.20;65.40
15554;DHT22;7878;44.632;10.942;2022-07-04T01:30:49;31.20;65.30
15554;DHT22;7878;44.632;10.942;2022-07-04T01:33:15;31.20;65.20
15554;DHT22;7878;44.632;10.942;2022-07-04T01:35:43;31.20;65.10
15554;DHT22;7878;44.632;10.942;2022-07-04T01:38:09;31.20;65.20
15554;DHT22;7878;44.632;10.942;2022-07-04T01:40:35;31.20;65.00
15554;DHT22;7878;44.632;10.942;2022-07-04T01:43:01;31.20;65.00
15554;DHT22;7878;44.632;10.942;2022-07-04T01:45:27;31.20;64.90
15554;DHT22;7878;44.632;10.942;2022-07-04T01:47:53;31.20;65.00
15554;DHT22;7878;44.632;10.942;2022-07-04T01:50:18;31.20;65.00
15554;DHT22;7878;44.632;10.942;2022-07-04T01:52:44;31.20;65.00
15554;DHT22;7878;44.632;10.942;2022-07-04T01:55:10;31.10;65.00
15554;DHT22;7878;44.632;10.942;2022-07-04T01:57:37;31.10;65.00
15554;DHT22;7878;44.632;10.942;2022-07-04T02:00:08;31.10;65.20
15554;DHT22;7878;44.632;10.942;2022-07-04T02:02:53;31.10;65.70
15554;DHT22;7878;44.632;10.942;2022-07-04T02:05:19;31.00;65.00
15554;DHT22;7878;44.632;10.942;2022-07-04T02:07:45;31.00;65.10
15554;DHT22;7878;44.632;10.942;2022-07-04T02:10:11;31.00;65.00
15554;DHT22;7878;44.632;10.942;2022-07-04T02:12:37;31.00;65.10
15554;DHT22;7878;44.632;10.942;2022-07-04T02:15:21;31.00;65.20
15554;DHT22;7878;44.632;10.942;2022-07-04T02:17:47;31.00;65.20
15554;DHT22;7878;44.632;10.942;2022-07-04T02:20:13;31.00;65.20
15554;DHT22;7878;44.632;10.942;2022-07-04T02:22:39;31.00;65.40
15554;DHT22;7878;44.632;10.942;2022-07-04T02:25:05;30.90;65.40
15554;DHT22;7878;44.632;10.942;2022-07-04T02:27:31;30.90;65.50
15554;DHT22;7878;44.632;10.942;2022-07-04T02:29:57;30.90;65.60
15554;DHT22;7878;44.632;10.942;2022-07-04T02:32:23;30.90;65.60
15554;DHT22;7878;44.632;10.942;2022-07-04T02:34:49;30.90;65.70
15554;DHT22;7878;44.632;10.942;2022-07-04T02:37:14;30.80;65.70
15554;DHT22;7878;44.632;10.942;2022-07-04T02:39:40;30.80;65.80
15554;DHT22;7878;44.632;10.942;2022-07-04T02:42:06;30.80;66.80
15554;DHT22;7878;44.632;10.942;2022-07-04T02:44:32;30.80;66.20
15554;DHT22;7878;44.632;10.942;2022-07-04T02:46:57;30.70;66.40
15554;DHT22;7878;44.632;10.942;2022-07-04T02:49:23;30.70;67.00
15554;DHT22;7878;44.632;10.942;2022-07-04T02:51:49;30.60;67.20
15554;DHT22;7878;44.632;10.942;2022-07-04T02:54:15;30.50;67.40
15554;DHT22;7878;44.632;10.942;2022-07-04T02:56:41;30.50;67.70
15554;DHT22;7878;44.632;10.942;2022-07-04T02:59:07;30.40;68.10
15554;DHT22;7878;44.632;10.942;2022-07-04T03:01:33;30.40;67.80
15554;DHT22;7878;44.632;10.942;2022-07-04T03:03:58;30.40;68.00
15554;DHT22;7878;44.632;10.942;2022-07-04T03:06:24;30.40;68.10
15554;DHT22;7878;44.632;10.942;2022-07-04T03:08:50;30.40;68.30
15554;DHT22;7878;44.632;10.942;2022-07-04T03:11:18;30.30;68.10
15554;DHT22;7878;44.632;10.942;2022-07-04T03:13:44;30.30;68.20
15554;DHT22;7878;44.632;10.942;2022-07-04T03:16:10;30.30;68.40
15554;DHT22;7878;44.632;10.942;2022-07-04T03:18:37;30.20;68.30
15554;DHT22;7878;44.632;10.942;2022-07-04T03:21:03;30.30;68.30
15554;DHT22;7878;44.632;10.942;2022-07-04T03:23:33;30.20;68.30
15554;DHT22;7878;44.632;10.942;2022-07-04T03:25:59;30.20;68.70
15554;DHT22;7878;44.632;10.942;2022-07-04T03:28:26;30.10;68.60
15554;DHT22;7878;44.632;10.942;2022-07-04T03:30:51;30.20;68.50
15554;DHT22;7878;44.632;10.942;2022-07-04T03:33:17;30.20;68.70
15554;DHT22;7878;44.632;10.942;2022-07-04T03:35:43;30.20;68.70
15554;DHT22;7878;44.632;10.942;2022-07-04T03:38:08;30.20;68.90
15554;DHT22;7878;44.632;10.942;2022-07-04T03:40:34;30.10;68.80
15554;DHT22;7878;44.632;10.942;2022-07-04T03:43:02;30.10;68.60
15554;DHT22;7878;44.632;10.942;2022-07-04T03:45:27;30.20;69.00
15554;DHT22;7878;44.632;10.942;2022-07-04T03:47:53;30.10;68.70
15554;DHT22;7878;44.632;10.942;2022-07-04T03:50:19;30.10;69.10
15554;DHT22;7878;44.632;10.942;2022-07-04T03:52:45;30.10;69.10
15554;DHT22;7878;44.632;10.942;2022-07-04T03:55:11;30.10;68.80
15554;DHT22;7878;44.632;10.942;2022-07-04T03:57:36;30.20;69.00
15554;DHT22;7878;44.632;10.942;2022-07-04T04:00:03;30.10;69.00
15554;DHT22;7878;44.632;10.942;2022-07-04T04:02:29;30.20;68.90
15554;DHT22;7878;44.632;10.942;2022-07-04T04:04:55;30.20;68.70
15554;DHT22;7878;44.632;10.942;2022-07-04T04:07:39;30.10;68.70
15554;DHT22;7878;44.632;10.942;2022-07-04T04:10:05;30.10;68.80
15554;DHT22;7878;44.632;10.942;2022-07-04T04:12:31;30.10;68.90
15554;DHT22;7878;44.632;10.942;2022-07-04T04:14:57;30.00;69.00
15554;DHT22;7878;44.632;10.942;2022-07-04T04:17:22;29.90;68.90
15554;DHT22;7878;44.632;10.942;2022-07-04T04:19:48;29.90;68.80
15554;DHT22;7878;44.632;10.942;2022-07-04T04:22:14;29.90;68.90
15554;DHT22;7878;44.632;10.942;2022-07-04T04:24:39;29.90;69.00
15554;DHT22;7878;44.632;10.942;2022-07-04T04:27:05;29.90;69.00
15554;DHT22;7878;44.632;10.942;2022-07-04T04:29:31;29.80;68.90
15554;DHT22;7878;44.632;10.942;2022-07-04T04:31:56;29.80;68.90
15554;DHT22;7878;44.632;10.942;2022-07-04T04:34:22;29.90;68.90
15554;DHT22;7878;44.632;10.942;2022-07-04T04:36:48;29.80;69.00
15554;DHT22;7878;44.632;10.942;2022-07-04T04:39:13;29.80;69.00
15554;DHT22;7878;44.632;10.942;2022-07-04T04:41:39;29.90;69.20
15554;DHT22;7878;44.632;10.942;2022-07-04T04:44:05;29.90;69.20
15554;DHT22;7878;44.632;10.942;2022-07-04T04:46:31;29.80;69.10
15554;DHT22;7878;44.632;10.942;2022-07-04T04:48:57;29.80;69.40
15554;DHT22;7878;44.632;10.942;2022-07-04T04:51:23;29.90;69.50
15554;DHT22;7878;44.632;10.942;2022-07-04T04:53:48;29.90;69.70
15554;DHT22;7878;44.632;10.942;2022-07-04T04:56:14;29.90;69.50
15554;DHT22;7878;44.632;10.942;2022-07-04T04:58:39;29.90;69.60
15554;DHT22;7878;44.632;10.942;2022-07-04T05:01:05;30.00;69.70
15554;DHT22;7878;44.632;10.942;2022-07-04T05:03:31;30.00;69.60
15554;DHT22;7878;44.632;10.942;2022-07-04T05:05:57;30.00;69.70
15554;DHT22;7878;44.632;10.942;2022-07-04T05:08:23;30.00;69.60
15554;DHT22;7878;44.632;10.942;2022-07-04T05:10:51;30.00;69.70
15554;DHT22;7878;44.632;10.942;2022-07-04T05:13:17;30.00;69.80
15554;DHT22;7878;44.632;10.942;2022-07-04T05:15:42;30.00;69.60
15554;DHT22;7878;44.632;10.942;2022-07-04T05:18:08;30.10;69.90
15554;DHT22;7878;44.632;10.942;2022-07-04T05:20:34;30.00;69.60
15554;DHT22;7878;44.632;10.942;2022-07-04T05:22:59;30.10;69.50
15554;DHT22;7878;44.632;10.942;2022-07-04T05:25:25;30.10;69.40
15554;DHT22;7878;44.632;10.942;2022-07-04T05:27:51;30.10;69.40
15554;DHT22;7878;44.632;10.942;2022-07-04T05:30:17;30.10;69.40
15554;DHT22;7878;44.632;10.942;2022-07-04T05:32:42;30.10;69.30
15554;DHT22;7878;44.632;10.942;2022-07-04T05:35:09;30.20;69.30
15554;DHT22;7878;44.632;10.942;2022-07-04T05:37:34;30.20;69.50
15554;DHT22;7878;44.632;10.942;2022-07-04T05:40:02;30.20;69.40
15554;DHT22;7878;44.632;10.942;2022-07-04T05:42:27;30.20;69.20
15554;DHT22;7878;44.632;10.942;2022-07-04T05:44:53;30.20;69.10
15554;DHT22;7878;44.632;10.942;2022-07-04T05:47:19;30.20;69.00
15554;DHT22;7878;44.632;10.942;2022-07-04T05:49:44;30.30;68.90
15554;DHT22;7878;44.632;10.942;2022-07-04T05:52:10;30.40;69.00
15554;DHT22;7878;44.632;10.942;2022-07-04T05:54:36;30.40;68.80
15554;DHT22;7878;44.632;10.942;2022-07-04T05:57:02;30.50;68.90
15554;DHT22;7878;44.632;10.942;2022-07-04T05:59:27;30.50;68.60
15554;DHT22;7878;44.632;10.942;2022-07-04T06:01:55;30.60;68.50
15554;DHT22;7878;44.632;10.942;2022-07-04T06:04:21;30.60;68.40
15554;DHT22;7878;44.632;10.942;2022-07-04T06:06:47;30.60;68.40
15554;DHT22;7878;44.632;10.942;2022-07-04T06:09:13;30.70;68.80
15554;DHT22;7878;44.632;10.942;2022-07-04T06:11:38;30.70;68.20
15554;DHT22;7878;44.632;10.942;2022-07-04T06:14:04;30.70;67.90
15554;DHT22;7878;44.632;10.942;2022-07-04T06:16:30;30.80;67.80
15554;DHT22;7878;44.632;10.942;2022-07-04T06:18:56;30.80;67.80
15554;DHT22;7878;44.632;10.942;2022-07-04T06:21:21;30.80;67.80
15554;DHT22;7878;44.632;10.942;2022-07-04T06:23:47;30.80;67.80
15554;DHT22;7878;44.632;10.942;2022-07-04T06:26:13;30.90;67.80
15554;DHT22;7878;44.632;10.942;2022-07-04T06:28:38;30.90;67.70
15554;DHT22;7878;44.632;10.942;2022-07-04T06:31:04;30.90;67.80
15554;DHT22;7878;44.632;10.942;2022-07-04T06:33:30;30.90;67.30
15554;DHT22;7878;44.632;10.942;2022-07-04T06:35:55;31.00;67.40
15554;DHT22;7878;44.632;10.942;2022-07-04T06:38:28;31.00;67.30
15554;DHT22;7878;44.632;10.942;2022-07-04T06:40:57;31.10;67.40
15554;DHT22;7878;44.632;10.942;2022-07-04T06:43:23;31.20;67.30
15554;DHT22;7878;44.632;10.942;2022-07-04T06:45:50;31.20;67.10
15554;DHT22;7878;44.632;10.942;2022-07-04T06:48:16;31.30;67.10
15554;DHT22;7878;44.632;10.942;2022-07-04T06:50:42;31.50;67.20
15554;DHT22;7878;44.632;10.942;2022-07-04T06:53:09;31.50;67.20
15554;DHT22;7878;44.632;10.942;2022-07-04T06:55:39;31.70;67.00
15554;DHT22;7878;44.632;10.942;2022-07-04T06:58:06;31.80;67.00
15554;DHT22;7878;44.632;10.942;2022-07-04T07:00:33;31.80;66.90
15554;DHT22;7878;44.632;10.942;2022-07-04T07:03:00;31.90;67.00
15554;DHT22;7878;44.632;10.942;2022-07-04T07:05:26;32.00;67.10
15554;DHT22;7878;44.632;10.942;2022-07-04T07:07:53;32.00;67.20
15554;DHT22;7878;44.632;10.942;2022-07-04T07:10:19;32.00;67.30
15554;DHT22;7878;44.632;10.942;2022-07-04T07:12:45;32.00;67.30
15554;DHT22;7878;44.632;10.942;2022-07-04T07:15:11;32.00;67.00
15554;DHT22;7878;44.632;10.942;2022-07-04T07:17:37;32.10;67.00
15554;DHT22;7878;44.632;10.942;2022-07-04T07:20:03;32.10;67.00
15554;DHT22;7878;44.632;10.942;2022-07-04T07:22:29;32.10;66.80
15554;DHT22;7878;44.632;10.942;2022-07-04T07:24:54;32.10;66.70
15554;DHT22;7878;44.632;10.942;2022-07-04T07:27:21;32.20;66.70
15554;DHT22;7878;44.632;10.942;2022-07-04T07:29:48;32.20;66.80
15554;DHT22;7878;44.632;10.942;2022-07-04T07:32:14;32.30;66.80
15554;DHT22;7878;44.632;10.942;2022-07-04T07:34:39;32.30;66.80
15554;DHT22;7878;44.632;10.942;2022-07-04T07:37:06;32.40;66.80
15554;DHT22;7878;44.632;10.942;2022-07-04T07:39:32;32.40;66.90
15554;DHT22;7878;44.632;10.942;2022-07-04T07:41:58;32.40;66.90
15554;DHT22;7878;44.632;10.942;2022-07-04T07:44:23;32.50;67.00
15554;DHT22;7878;44.632;10.942;2022-07-04T07:46:49;32.50;66.90
15554;DHT22;7878;44.632;10.942;2022-07-04T07:49:15;32.60;66.80
15554;DHT22;7878;44.632;10.942;2022-07-04T07:51:41;32.60;66.80
15554;DHT22;7878;44.632;10.942;2022-07-04T07:54:06;32.60;66.60
15554;DHT22;7878;44.632;10.942;2022-07-04T07:56:32;32.60;66.50
15554;DHT22;7878;44.632;10.942;2022-07-04T07:58:58;32.60;66.40
15554;DHT22;7878;44.632;10.942;2022-07-04T08:01:23;32.70;66.10
15554;DHT22;7878;44.632;10.942;2022-07-04T08:03:49;32.70;65.60
15554;DHT22;7878;44.632;10.942;2022-07-04T08:06:33;32.80;65.50
15554;DHT22;7878;44.632;10.942;2022-07-04T08:09:00;32.90;65.30
15554;DHT22;7878;44.632;10.942;2022-07-04T08:11:26;33.00;65.40
15554;DHT22;7878;44.632;10.942;2022-07-04T08:13:52;33.10;65.00
15554;DHT22;7878;44.632;10.942;2022-07-04T08:16:18;33.10;65.20
15554;DHT22;7878;44.632;10.942;2022-07-04T08:18:43;33.20;65.50
15554;DHT22;7878;44.632;10.942;2022-07-04T08:21:09;33.20;65.30
15554;DHT22;7878;44.632;10.942;2022-07-04T08:23:35;33.20;65.30
15554;DHT22;7878;44.632;10.942;2022-07-04T08:26:01;33.20;65.40
15554;DHT22;7878;44.632;10.942;2022-07-04T08:28:28;33.30;65.50
15554;DHT22;7878;44.632;10.942;2022-07-04T08:30:54;33.40;65.30
15554;DHT22;7878;44.632;10.942;2022-07-04T08:33:20;33.50;65.10
15554;DHT22;7878;44.632;10.942;2022-07-04T08:35:46;33.60;65.20
15554;DHT22;7878;44.632;10.942;2022-07-04T08:38:12;33.70;65.30
15554;DHT22;7878;44.632;10.942;2022-07-04T08:40:37;33.70;64.80
15554;DHT22;7878;44.632;10.942;2022-07-04T08:43:05;33.70;64.50
15554;DHT22;7878;44.632;10.942;2022-07-04T08:45:32;33.70;64.40
15554;DHT22;7878;44.632;10.942;2022-07-04T08:50:33;33.80;64.00
15554;DHT22;7878;44.632;10.942;2022-07-04T08:53:07;33.80;64.00
15554;DHT22;7878;44.632;10.942;2022-07-04T08:55:35;33.80;64.20
15554;DHT22;7878;44.632;10.942;2022-07-04T08:58:22;33.80;64.40
15554;DHT22;7878;44.632;10.942;2022-07-04T09:01:04;33.80;64.60
15554;DHT22;7878;44.632;10.942;2022-07-04T09:03:32;33.90;64.50
15554;DHT22;7878;44.632;10.942;2022-07-04T09:05:59;33.90;64.10
15554;DHT22;7878;44.632;10.942;2022-07-04T09:08:26;34.00;64.20
15554;DHT22;7878;44.632;10.942;2022-07-04T09:10:53;34.00;63.90
15554;DHT22;7878;44.632;10.942;2022-07-04T09:13:19;34.00;64.10
15554;DHT22;7878;44.632;10.942;2022-07-04T09:15:47;34.10;64.30
15554;DHT22;7878;44.632;10.942;2022-07-04T09:18:24;34.10;64.20
15554;DHT22;7878;44.632;10.942;2022-07-04T09:20:50;34.20;63.60
15554;DHT22;7878;44.632;10.942;2022-07-04T09:23:21;34.20;64.00
15554;DHT22;7878;44.632;10.942;2022-07-04T09:25:49;34.20;64.10
15554;DHT22;7878;44.632;10.942;2022-07-04T09:28:30;34.20;64.20
15554;DHT22;7878;44.632;10.942;2022-07-04T09:30:56;34.40;64.50
15554;DHT22;7878;44.632;10.942;2022-07-04T09:33:22;34.50;64.50
15554;DHT22;7878;44.632;10.942;2022-07-04T09:35:48;34.60;64.30
15554;DHT22;7878;44.632;10.942;2022-07-04T09:38:22;34.80;64.10
15554;DHT22;7878;44.632;10.942;2022-07-04T09:40:52;34.90;64.00
15554;DHT22;7878;44.632;10.942;2022-07-04T09:43:36;34.90;64.10
15554;DHT22;7878;44.632;10.942;2022-07-04T09:46:02;34.80;64.40
15554;DHT22;7878;44.632;10.942;2022-07-04T09:48:50;34.80;64.40
15554;DHT22;7878;44.632;10.942;2022-07-04T09:51:38;34.90;63.40
15554;DHT22;7878;44.632;10.942;2022-07-04T09:56:55;35.00;63.80
15554;DHT22;7878;44.632;10.942;2022-07-04T09:59:22;34.90;64.10
15554;DHT22;7878;44.632;10.942;2022-07-04T10:01:48;34.80;64.50
15554;DHT22;7878;44.632;10.942;2022-07-04T10:04:14;34.80;64.80
15554;DHT22;7878;44.632;10.942;2022-07-04T10:06:42;34.70;64.80
15554;DHT22;7878;44.632;10.942;2022-07-04T10:11:34;34.70;65.40
15554;DHT22;7878;44.632;10.942;2022-07-04T10:14:00;34.70;64.90
15554;DHT22;7878;44.632;10.942;2022-07-04T10:16:27;34.70;64.80
15554;DHT22;7878;44.632;10.942;2022-07-04T10:18:54;34.70;65.00
15554;DHT22;7878;44.632;10.942;2022-07-04T10:21:20;34.60;64.80
15554;DHT22;7878;44.632;10.942;2022-07-04T10:23:47;34.50;65.10
15554;DHT22;7878;44.632;10.942;2022-07-04T10:26:21;34.40;65.10
15554;DHT22;7878;44.632;10.942;2022-07-04T10:28:49;34.20;65.20
15554;DHT22;7878;44.632;10.942;2022-07-04T10:31:16;34.20;65.50
15554;DHT22;7878;44.632;10.942;2022-07-04T10:33:42;34.00;65.60
15554;DHT22;7878;44.632;10.942;2022-07-04T10:36:23;34.00;65.70
15554;DHT22;7878;44.632;10.942;2022-07-04T10:38:54;33.90;65.70
15554;DHT22;7878;44.632;10.942;2022-07-04T10:41:22;33.90;65.90
15554;DHT22;7878;44.632;10.942;2022-07-04T10:43:52;33.90;66.10
15554;DHT22;7878;44.632;10.942;2022-07-04T10:46:28;33.90;66.00
15554;DHT22;7878;44.632;10.942;2022-07-04T10:49:03;33.80;66.80
15554;DHT22;7878;44.632;10.942;2022-07-04T10:59:37;33.80;66.90
15554;DHT22;7878;44.632;10.942;2022-07-04T11:07:10;33.80;66.90
15554;DHT22;7878;44.632;10.942;2022-07-04T11:09:36;33.80;66.50
15554;DHT22;7878;44.632;10.942;2022-07-04T11:12:03;33.80;66.50
15554;DHT22;7878;44.632;10.942;2022-07-04T11:17:21;33.80;67.00
15554;DHT22;7878;44.632;10.942;2022-07-04T11:20:02;33.90;66.90
15554;DHT22;7878;44.632;10.942;2022-07-04T11:22:29;33.90;66.80
15554;DHT22;7878;44.632;10.942;2022-07-04T11:24:55;33.90;66.90
15554;DHT22;7878;44.632;10.942;2022-07-04T11:27:22;34.00;67.10
15554;DHT22;7878;44.632;10.942;2022-07-04T11:29:51;34.10;67.20
15554;DHT22;7878;44.632;10.942;2022-07-04T11:32:18;34.30;67.50
15554;DHT22;7878;44.632;10.942;2022-07-04T11:34:44;34.40;67.00
15554;DHT22;7878;44.632;10.942;2022-07-04T11:37:10;34.80;67.30
15554;DHT22;7878;44.632;10.942;2022-07-04T11:39:35;34.90;66.80
15554;DHT22;7878;44.632;10.942;2022-07-04T11:42:01;35.10;66.70
15554;DHT22;7878;44.632;10.942;2022-07-04T11:44:45;35.20;66.60
15554;DHT22;7878;44.632;10.942;2022-07-04T11:47:37;35.30;66.40
15554;DHT22;7878;44.632;10.942;2022-07-04T11:50:08;35.40;66.40
15554;DHT22;7878;44.632;10.942;2022-07-04T11:55:08;35.50;65.90
15554;DHT22;7878;44.632;10.942;2022-07-04T11:57:39;35.50;65.90
15554;DHT22;7878;44.632;10.942;2022-07-04T12:02:35;35.60;66.00
15554;DHT22;7878;44.632;10.942;2022-07-04T12:05:02;35.60;66.00
15554;DHT22;7878;44.632;10.942;2022-07-04T12:07:32;35.60;65.80
15554;DHT22;7878;44.632;10.942;2022-07-04T12:10:15;35.60;66.00
15554;DHT22;7878;44.632;10.942;2022-07-04T12:13:02;35.60;65.90
15554;DHT22;7878;44.632;10.942;2022-07-04T12:15:38;35.70;65.50
15554;DHT22;7878;44.632;10.942;2022-07-04T12:18:07;35.70;65.80
15554;DHT22;7878;44.632;10.942;2022-07-04T12:20:40;35.70;65.70
15554;DHT22;7878;44.632;10.942;2022-07-04T12:23:06;35.70;65.70
15554;DHT22;7878;44.632;10.942;2022-07-04T12:25:36;35.70;65.50
15554;DHT22;7878;44.632;10.942;2022-07-04T12:28:09;35.70;65.50
15554;DHT22;7878;44.632;10.942;2022-07-04T12:30:38;35.70;65.50
15554;DHT22;7878;44.632;10.942;2022-07-04T12:35:37;35.70;65.70
15554;DHT22;7878;44.632;10.942;2022-07-04T12:40:54;35.70;65.50
15554;DHT22;7878;44.632;10.942;2022-07-04T12:43:21;35.70;64.70
15554;DHT22;7878;44.632;10.942;2022-07-04T12:48:17;35.80;65.50
15554;DHT22;7878;44.632;10.942;2022-07-04T12:50:43;35.80;65.20
15554;DHT22;7878;44.632;10.942;2022-07-04T12:53:09;35.80;65.20
15554;DHT22;7878;44.632;10.942;2022-07-04T12:55:38;35.80;65.30
15554;DHT22;7878;44.632;10.942;2022-07-04T12:58:05;35.80;64.70
15554;DHT22;7878;44.632;10.942;2022-07-04T13:00:31;35.80;64.70
15554;DHT22;7878;44.632;10.942;2022-07-04T13:02:56;35.70;64.60
15554;DHT22;7878;44.632;10.942;2022-07-04T13:05:22;35.70;64.60
15554;DHT22;7878;44.632;10.942;2022-07-04T13:07:48;35.80;64.80
15554;DHT22;7878;44.632;10.942;2022-07-04T13:10:13;35.80;64.80
15554;DHT22;7878;44.632;10.942;2022-07-04T13:12:39;35.80;64.80
15554;DHT22;7878;44.632;10.942;2022-07-04T13:15:05;35.80;64.20
15554;DHT22;7878;44.632;10.942;2022-07-04T13:17:31;35.90;64.60
15554;DHT22;7878;44.632;10.942;2022-07-04T13:19:57;35.90;64.40
15554;DHT22;7878;44.632;10.942;2022-07-04T13:22:23;35.90;64.70
15554;DHT22;7878;44.632;10.942;2022-07-04T13:24:49;35.80;64.50
15554;DHT22;7878;44.632;10.942;2022-07-04T13:27:16;35.90;64.80
15554;DHT22;7878;44.632;10.942;2022-07-04T13:29:42;35.90;64.80
15554;DHT22;7878;44.632;10.942;2022-07-04T13:32:07;35.90;64.60
15554;DHT22;7878;44.632;10.942;2022-07-04T13:34:35;35.80;64.80
15554;DHT22;7878;44.632;10.942;2022-07-04T13:37:00;35.90;64.30
15554;DHT22;7878;44.632;10.942;2022-07-04T13:39:26;35.90;64.40
15554;DHT22;7878;44.632;10.942;2022-07-04T13:41:52;35.90;64.30
15554;DHT22;7878;44.632;10.942;2022-07-04T13:44:17;35.90;64.20
15554;DHT22;7878;44.632;10.942;2022-07-04T13:46:43;35.90;64.00
15554;DHT22;7878;44.632;10.942;2022-07-04T13:49:09;35.90;64.10
15554;DHT22;7878;44.632;10.942;2022-07-04T13:51:35;35.90;64.20
15554;DHT22;7878;44.632;10.942;2022-07-04T13:54:02;36.00;64.40
15554;DHT22;7878;44.632;10.942;2022-07-04T13:56:28;36.00;64.40
15554;DHT22;7878;44.632;10.942;2022-07-04T13:58:53;36.10;64.30
15554;DHT22;7878;44.632;10.942;2022-07-04T14:01:20;36.10;64.30
15554;DHT22;7878;44.632;10.942;2022-07-04T14:03:47;36.10;64.20
15554;DHT22;7878;44.632;10.942;2022-07-04T14:06:13;36.20;64.60
15554;DHT22;7878;44.632;10.942;2022-07-04T14:08:39;36.20;64.70
15554;DHT22;7878;44.632;10.942;2022-07-04T14:11:04;36.20;64.70
15554;DHT22;7878;44.632;10.942;2022-07-04T14:13:31;36.20;64.60
15554;DHT22;7878;44.632;10.942;2022-07-04T14:15:56;36.20;64.40
15554;DHT22;7878;44.632;10.942;2022-07-04T14:18:22;36.20;64.60
15554;DHT22;7878;44.632;10.942;2022-07-04T14:20:48;36.20;64.40
15554;DHT22;7878;44.632;10.942;2022-07-04T14:23:16;36.20;64.30
15554;DHT22;7878;44.632;10.942;2022-07-04T14:26:03;36.20;64.10
15554;DHT22;7878;44.632;10.942;2022-07-04T14:28:30;36.20;64.20
15554;DHT22;7878;44.632;10.942;2022-07-04T14:30:56;36.20;63.50
15554;DHT22;7878;44.632;10.942;2022-07-04T14:33:22;36.20;64.20
15554;DHT22;7878;44.632;10.942;2022-07-04T14:35:48;36.10;64.00
15554;DHT22;7878;44.632;10.942;2022-07-04T14:38:13;36.20;63.90
15554;DHT22;7878;44.632;10.942;2022-07-04T14:40:39;36.20;63.80
15554;DHT22;7878;44.632;10.942;2022-07-04T14:43:08;36.20;64.00
15554;DHT22;7878;44.632;10.942;2022-07-04T14:45:34;36.30;63.90
15554;DHT22;7878;44.632;10.942;2022-07-04T14:47:59;36.20;63.90
15554;DHT22;7878;44.632;10.942;2022-07-04T14:50:25;36.20;64.00
15554;DHT22;7878;44.632;10.942;2022-07-04T14:52:51;36.20;64.10
15554;DHT22;7878;44.632;10.942;2022-07-04T14:55:16;36.20;63.70
15554;DHT22;7878;44.632;10.942;2022-07-04T14:57:42;36.20;63.90
15554;DHT22;7878;44.632;10.942;2022-07-04T15:00:08;36.20;63.80
15554;DHT22;7878;44.632;10.942;2022-07-04T15:02:34;36.20;64.00
15554;DHT22;7878;44.632;10.942;2022-07-04T15:05:00;36.20;63.80
15554;DHT22;7878;44.632;10.942;2022-07-04T15:07:26;36.20;63.40
15554;DHT22;7878;44.632;10.942;2022-07-04T15:09:51;36.20;63.40
15554;DHT22;7878;44.632;10.942;2022-07-04T15:12:17;36.20;63.60
15554;DHT22;7878;44.632;10.942;2022-07-04T15:14:44;36.20;63.60
15554;DHT22;7878;44.632;10.942;2022-07-04T15:17:09;36.20;63.70
15554;DHT22;7878;44.632;10.942;2022-07-04T15:19:35;36.20;63.50
15554;DHT22;7878;44.632;10.942;2022-07-04T15:22:20;36.10;63.60
15554;DHT22;7878;44.632;10.942;2022-07-04T15:25:05;36.20;63.50
15554;DHT22;7878;44.632;10.942;2022-07-04T15:27:31;36.30;63.30
15554;DHT22;7878;44.632;10.942;2022-07-04T15:29:56;36.30;63.00
15554;DHT22;7878;44.632;10.942;2022-07-04T15:32:22;36.20;63.20
15554;DHT22;7878;44.632;10.942;2022-07-04T15:34:47;36.20;63.20
15554;DHT22;7878;44.632;10.942;2022-07-04T15:37:13;36.20;63.20
15554;DHT22;7878;44.632;10.942;2022-07-04T15:39:39;36.20;63.40
15554;DHT22;7878;44.632;10.942;2022-07-04T15:42:04;36.20;63.50
15554;DHT22;7878;44.632;10.942;2022-07-04T15:44:30;36.20;63.60
15554;DHT22;7878;44.632;10.942;2022-07-04T15:46:56;36.20;63.10
15554;DHT22;7878;44.632;10.942;2022-07-04T15:49:34;36.20;62.90
15554;DHT22;7878;44.632;10.942;2022-07-04T15:52:00;36.20;62.90
15554;DHT22;7878;44.632;10.942;2022-07-04T15:54:26;36.20;63.00
15554;DHT22;7878;44.632;10.942;2022-07-04T15:56:52;36.30;63.20
15554;DHT22;7878;44.632;10.942;2022-07-04T15:59:17;36.30;63.30
15554;DHT22;7878;44.632;10.942;2022-07-04T16:01:43;36.30;63.40
15554;DHT22;7878;44.632;10.942;2022-07-04T16:04:09;36.30;63.50
15554;DHT22;7878;44.632;10.942;2022-07-04T16:06:35;36.30;63.50